createdAt,value
2019-03-10T00:00:19.599Z,101604.73
2019-03-10T00:01:20.086Z,101603.84
2019-03-10T00:02:20.079Z,101603.84
2019-03-10T00:03:20.927Z,101603.44
2019-03-10T00:04:21.241Z,101603.47
2019-03-10T00:05:22.469Z,101603.47
2019-03-10T00:06:22.979Z,101603.30
2019-03-10T00:07:21.901Z,101603.55
2019-03-10T00:08:22.357Z,101603.58
2019-03-10T00:09:22.158Z,101603.33
2019-03-10T00:10:23.358Z,101602.52
2019-03-10T00:11:23.665Z,101601.75
2019-03-10T00:12:24.364Z,101601.59
2019-03-10T00:13:24.536Z,101600.99
2019-03-10T00:14:24.829Z,101600.83
2019-03-10T00:15:25.108Z,101601.11
2019-03-10T00:16:26.008Z,101600.52
2019-03-10T00:17:26.559Z,101600.04
2019-03-10T00:18:27.017Z,101599.95
2019-03-10T00:19:27.717Z,101599.64
2019-03-10T00:20:28.350Z,101599.30
2019-03-10T00:21:28.499Z,101599.42
2019-03-10T00:22:28.830Z,101599.58
2019-03-10T00:23:29.009Z,101599.78
2019-03-10T00:24:28.586Z,101599.61
2019-03-10T00:25:30.148Z,101598.97
2019-03-10T00:26:30.888Z,101598.71
2019-03-10T00:27:31.022Z,101597.61
2019-03-10T00:28:31.739Z,101596.69
2019-03-10T00:29:31.844Z,101596.37
2019-03-10T00:30:32.135Z,101595.73
2019-03-10T00:31:32.215Z,101594.89
2019-03-10T00:32:32.552Z,101593.91
2019-03-10T00:33:32.761Z,101593.65
2019-03-10T00:34:33.323Z,101592.92
2019-03-10T00:35:33.631Z,101592.07
2019-03-10T00:36:33.676Z,101591.52
2019-03-10T00:37:34.235Z,101590.16
2019-03-10T00:38:34.856Z,101588.92
2019-03-10T00:39:35.095Z,101587.91
2019-03-10T00:40:35.228Z,101586.92
2019-03-10T00:41:35.346Z,101585.35
2019-03-10T00:42:35.661Z,101583.66
2019-03-10T00:42:44.190Z,101566.91
2019-03-10T00:43:45.640Z,101563.59
2019-03-10T00:44:45.821Z,101563.25
2019-03-10T00:45:46.218Z,101563.08
2019-03-10T00:46:46.779Z,101562.58
2019-03-10T00:47:46.823Z,101561.90
2019-03-10T00:48:47.115Z,101560.89
2019-03-10T00:49:47.399Z,101560.47
2019-03-10T00:50:47.466Z,101559.20
2019-03-10T00:51:47.949Z,101558.19
2019-03-10T00:52:48.390Z,101557.91
2019-03-10T00:53:48.781Z,101558.25
2019-03-10T00:54:48.840Z,101557.96
2019-03-10T00:55:49.477Z,101557.80
2019-03-10T00:56:49.882Z,101556.95
2019-03-10T00:57:50.140Z,101556.53
2019-03-10T00:58:50.350Z,101555.86
2019-03-10T00:59:50.565Z,101555.52
2019-03-10T01:00:50.887Z,101554.77
2019-03-10T01:01:51.397Z,101554.42
2019-03-10T01:02:52.293Z,101553.58
2019-03-10T01:03:52.663Z,101553.53
2019-03-10T01:04:51.985Z,101553.19
2019-03-10T01:05:53.504Z,101552.80
2019-03-10T01:06:53.663Z,101552.46
2019-03-10T01:07:53.957Z,101551.70
2019-03-10T01:08:54.832Z,101551.27
2019-03-10T01:09:54.957Z,101550.77
2019-03-10T01:10:55.320Z,101549.76
2019-03-10T01:11:55.902Z,101549.00
2019-03-10T01:12:56.492Z,101548.10
2019-03-10T01:13:56.609Z,101547.51
2019-03-10T01:14:56.806Z,101546.24
2019-03-10T01:15:56.881Z,101545.57
2019-03-10T01:16:56.915Z,101544.22
2019-03-10T01:17:57.833Z,101542.70
2019-03-10T01:18:58.149Z,101540.94
2019-03-10T01:19:58.851Z,101539.22
2019-03-10T01:20:58.921Z,101537.28
2019-03-10T01:21:59.132Z,101535.51
2019-03-10T01:22:59.785Z,101534.75
2019-03-10T01:24:00.128Z,101534.13
2019-03-10T01:25:00.365Z,101532.61
2019-03-10T01:26:00.670Z,101531.04
2019-03-10T01:26:09.245Z,101504.23
2019-03-10T01:27:10.940Z,101509.00
2019-03-10T01:28:11.502Z,101508.08
2019-03-10T01:29:11.930Z,101507.31
2019-03-10T01:30:12.692Z,101506.64
2019-03-10T01:31:12.870Z,101505.04
2019-03-10T01:32:12.868Z,101503.97
2019-03-10T01:33:13.824Z,101502.45
2019-03-10T01:34:13.985Z,101500.27
2019-03-10T01:35:14.547Z,101498.30
2019-03-10T01:36:14.961Z,101496.27
2019-03-10T01:37:15.180Z,101494.92
2019-03-10T01:38:15.271Z,101492.56
2019-03-10T01:39:15.511Z,101490.45
2019-03-10T01:40:15.743Z,101488.09
2019-03-10T01:41:16.668Z,101486.16
2019-03-10T01:42:17.096Z,101482.70
2019-03-10T01:43:17.194Z,101480.09
2019-03-10T01:44:17.551Z,101476.63
2019-03-10T01:45:17.672Z,101473.77
2019-03-10T01:46:18.032Z,101470.30
2019-03-10T01:47:18.492Z,101467.05
2019-03-10T01:48:18.966Z,101463.92
2019-03-10T01:49:19.265Z,101461.14
2019-03-10T01:50:19.592Z,101457.89
2019-03-10T01:51:19.664Z,101454.77
2019-03-10T01:52:19.933Z,101452.32
2019-03-10T01:53:25.503Z,101449.20
2019-03-10T01:54:20.053Z,101446.45
2019-03-10T01:55:20.382Z,101443.33
2019-03-10T01:56:21.588Z,101440.55
2019-03-10T01:57:22.554Z,101437.54
2019-03-10T01:58:23.482Z,101434.92
2019-03-10T01:59:23.835Z,101431.98
2019-03-10T02:00:24.298Z,101429.95
2019-03-10T02:01:24.639Z,101427.20
2019-03-10T02:02:25.990Z,101424.59
2019-03-10T02:03:24.901Z,101421.30
2019-03-10T02:04:25.040Z,101418.77
2019-03-10T02:05:26.516Z,101415.98
2019-03-10T02:06:26.723Z,101412.95
2019-03-10T02:07:27.057Z,101410.17
2019-03-10T02:08:26.904Z,101407.13
2019-03-10T02:09:28.354Z,101404.33
2019-03-10T02:10:28.965Z,101401.29
2019-03-10T02:11:29.906Z,101398.17
2019-03-10T02:12:30.404Z,101394.97
2019-03-10T02:12:38.954Z,101340.73
2019-03-10T02:13:40.739Z,101337.42
2019-03-10T02:14:41.009Z,101336.86
2019-03-10T02:15:41.879Z,101337.09
2019-03-10T02:16:41.975Z,101335.85
2019-03-10T02:17:42.305Z,101334.59
2019-03-10T02:18:43.311Z,101333.91
2019-03-10T02:19:43.613Z,101332.90
2019-03-10T02:20:43.714Z,101331.75
2019-03-10T02:21:44.012Z,101330.40
2019-03-10T02:22:44.399Z,101328.75
2019-03-10T02:23:44.601Z,101326.89
2019-03-10T02:24:44.871Z,101325.23
2019-03-10T02:25:45.226Z,101322.91
2019-03-10T02:26:45.407Z,101320.46
2019-03-10T02:27:45.932Z,101318.05
2019-03-10T02:28:45.968Z,101315.63
2019-03-10T02:29:46.187Z,101312.63
2019-03-10T02:30:46.822Z,101310.22
2019-03-10T02:31:47.161Z,101307.13
2019-03-10T02:32:48.063Z,101304.55
2019-03-10T02:33:48.219Z,101301.41
2019-03-10T02:34:48.649Z,101298.65
2019-03-10T02:35:49.372Z,101295.34
2019-03-10T02:36:49.896Z,101292.92
2019-03-10T02:37:50.094Z,101290.13
2019-03-10T02:38:50.498Z,101287.15
2019-03-10T02:39:50.541Z,101284.52
2019-03-10T02:40:50.858Z,101281.51
2019-03-10T02:41:51.333Z,101278.53
2019-03-10T02:42:51.625Z,101275.95
2019-03-10T02:43:51.771Z,101272.64
2019-03-10T02:44:52.010Z,101269.89
2019-03-10T02:45:51.173Z,101267.17
2019-03-10T02:46:52.568Z,101264.00
2019-03-10T02:47:53.032Z,101260.86
2019-03-10T02:48:53.035Z,101257.86
2019-03-10T02:49:53.960Z,101255.22
2019-03-10T02:50:54.373Z,101252.16
2019-03-10T02:51:54.436Z,101249.95
2019-03-10T02:52:54.756Z,101248.23
2019-03-10T02:53:54.944Z,101246.33
2019-03-10T02:54:55.039Z,101245.30
2019-03-10T02:55:55.457Z,101243.92
2019-03-10T02:56:03.994Z,101225.41
2019-03-10T02:57:05.295Z,101223.75
2019-03-10T02:58:05.507Z,101223.58
2019-03-10T02:59:05.957Z,101224.09
2019-03-10T03:00:06.731Z,101224.64
2019-03-10T03:01:07.114Z,101224.88
2019-03-10T03:02:07.594Z,101224.70
2019-03-10T03:03:07.867Z,101224.76
2019-03-10T03:04:08.410Z,101224.05
2019-03-10T03:05:08.750Z,101223.77
2019-03-10T03:06:08.987Z,101223.27
2019-03-10T03:07:09.649Z,101221.83
2019-03-10T03:08:10.562Z,101220.80
2019-03-10T03:09:11.220Z,101219.11
2019-03-10T03:10:11.578Z,101217.93
2019-03-10T03:11:11.979Z,101216.25
2019-03-10T03:12:12.333Z,101214.31
2019-03-10T03:13:12.661Z,101211.70
2019-03-10T03:14:12.991Z,101208.92
2019-03-10T03:15:12.870Z,101206.06
2019-03-10T03:16:14.262Z,101202.55
2019-03-10T03:17:14.574Z,101199.35
2019-03-10T03:18:14.948Z,101196.86
2019-03-10T03:19:14.106Z,101194.70
2019-03-10T03:20:16.046Z,101192.59
2019-03-10T03:21:16.232Z,101189.89
2019-03-10T03:22:16.564Z,101187.56
2019-03-10T03:23:16.743Z,101185.30
2019-03-10T03:24:17.216Z,101182.04
2019-03-10T03:25:17.479Z,101179.30
2019-03-10T03:26:18.311Z,101177.05
2019-03-10T03:27:18.885Z,101174.05
2019-03-10T03:28:19.178Z,101170.88
2019-03-10T03:29:19.603Z,101168.13
2019-03-10T03:30:20.094Z,101165.34
2019-03-10T03:31:20.566Z,101162.27
2019-03-10T03:32:20.994Z,101158.67
2019-03-10T03:33:21.307Z,101155.09
2019-03-10T03:34:21.930Z,101151.67
2019-03-10T03:35:22.212Z,101148.16
2019-03-10T03:36:22.682Z,101144.66
2019-03-10T03:37:23.093Z,101141.31
2019-03-10T03:38:23.721Z,101137.98
2019-03-10T03:39:24.543Z,101135.14
2019-03-10T03:40:24.955Z,101132.82
2019-03-10T03:40:33.564Z,101094.22
2019-03-10T03:41:34.181Z,101088.22
2019-03-10T03:42:35.854Z,101087.80
2019-03-10T03:43:36.529Z,101087.08
2019-03-10T03:44:37.152Z,101086.48
2019-03-10T03:45:36.900Z,101085.31
2019-03-10T03:46:38.267Z,101084.08
2019-03-10T03:47:38.361Z,101082.14
2019-03-10T03:48:38.606Z,101080.13
2019-03-10T03:49:39.069Z,101077.85
2019-03-10T03:50:39.358Z,101074.85
2019-03-10T03:51:39.633Z,101072.75
2019-03-10T03:52:39.879Z,101070.47
2019-03-10T03:53:38.919Z,101068.48
2019-03-10T03:54:40.216Z,101066.41
2019-03-10T03:55:41.027Z,101064.05
2019-03-10T03:56:41.139Z,101062.23
2019-03-10T03:57:41.661Z,101059.80
2019-03-10T03:58:42.146Z,101057.16
2019-03-10T03:59:42.349Z,101055.90
2019-03-10T04:00:42.692Z,101053.69
2019-03-10T04:01:42.859Z,101051.84
2019-03-10T04:02:43.415Z,101049.26
2019-03-10T04:03:43.504Z,101046.69
2019-03-10T04:04:43.555Z,101044.11
2019-03-10T04:05:43.698Z,101042.09
2019-03-10T04:06:44.197Z,101039.84
2019-03-10T04:07:44.607Z,101037.99
2019-03-10T04:08:45.355Z,101036.17
2019-03-10T04:09:44.810Z,101033.84
2019-03-10T04:10:46.272Z,101032.17
2019-03-10T04:11:46.436Z,101030.04
2019-03-10T04:12:47.110Z,101028.47
2019-03-10T04:13:47.921Z,101026.40
2019-03-10T04:14:48.135Z,101024.58
2019-03-10T04:15:48.593Z,101022.70
2019-03-10T04:16:49.011Z,101020.47
2019-03-10T04:17:49.131Z,101018.22
2019-03-10T04:18:49.438Z,101016.52
2019-03-10T04:19:49.860Z,101014.30
2019-03-10T04:20:50.272Z,101012.34
2019-03-10T04:21:50.710Z,101010.55
2019-03-10T04:22:51.256Z,101008.55
2019-03-10T04:23:52.078Z,101006.61
2019-03-10T04:24:52.392Z,101004.44
2019-03-10T04:25:52.626Z,101002.98
2019-03-10T04:26:01.179Z,100977.30
2019-03-10T04:27:02.964Z,100979.41
2019-03-10T04:28:03.456Z,100978.57
2019-03-10T04:29:03.770Z,100977.78
2019-03-10T04:30:04.353Z,100977.28
2019-03-10T04:31:05.033Z,100976.61
2019-03-10T04:32:05.811Z,100975.98
2019-03-10T04:33:06.049Z,100975.57
2019-03-10T04:34:06.868Z,100974.73
2019-03-10T04:35:07.174Z,100974.14
2019-03-10T04:36:08.036Z,100973.44
2019-03-10T04:37:08.513Z,100972.94
2019-03-10T04:38:08.419Z,100971.89
2019-03-10T04:39:09.718Z,100971.39
2019-03-10T04:40:09.851Z,100970.47
2019-03-10T04:41:10.000Z,100970.19
2019-03-10T04:42:10.442Z,100969.30
2019-03-10T04:43:10.833Z,100968.45
2019-03-10T04:44:11.390Z,100967.61
2019-03-10T04:45:11.932Z,100965.94
2019-03-10T04:46:12.120Z,100964.25
2019-03-10T04:47:12.699Z,100962.41
2019-03-10T04:48:13.293Z,100961.06
2019-03-10T04:49:13.549Z,100960.05
2019-03-10T04:50:13.623Z,100958.38
2019-03-10T04:51:14.051Z,100956.27
2019-03-10T04:52:14.730Z,100954.92
2019-03-10T04:53:15.727Z,100953.08
2019-03-10T04:54:15.962Z,100951.56
2019-03-10T04:55:16.179Z,100949.58
2019-03-10T04:56:16.467Z,100947.47
2019-03-10T04:57:16.941Z,100945.54
2019-03-10T04:58:17.381Z,100942.97
2019-03-10T04:59:17.810Z,100939.86
2019-03-10T05:00:17.271Z,100936.91
2019-03-10T05:01:18.712Z,100934.39
2019-03-10T05:02:19.300Z,100931.87
2019-03-10T05:03:19.865Z,100929.02
2019-03-10T05:04:20.801Z,100926.16
2019-03-10T05:05:21.329Z,100923.39
2019-03-10T05:06:21.661Z,100920.11
2019-03-10T05:07:22.647Z,100917.14
2019-03-10T05:08:23.288Z,100913.70
2019-03-10T05:09:23.489Z,100911.00
2019-03-10T05:10:25.286Z,100907.81
2019-03-10T05:11:23.754Z,100904.67
2019-03-10T05:11:32.280Z,100856.91
2019-03-10T05:12:33.620Z,100852.80
2019-03-10T05:13:34.997Z,100852.05
2019-03-10T05:14:34.352Z,100850.95
2019-03-10T05:15:34.790Z,100849.72
2019-03-10T05:16:35.196Z,100848.05
2019-03-10T05:17:34.653Z,100846.87
2019-03-10T05:18:35.681Z,100845.52
2019-03-10T05:19:36.053Z,100843.59
2019-03-10T05:20:36.180Z,100841.16
2019-03-10T05:21:36.196Z,100838.91
2019-03-10T05:22:36.223Z,100836.90
2019-03-10T05:23:37.250Z,100833.79
2019-03-10T05:24:37.582Z,100831.19
2019-03-10T05:25:38.154Z,100827.91
2019-03-10T05:26:38.611Z,100825.00
2019-03-10T05:27:39.100Z,100821.72
2019-03-10T05:28:39.505Z,100818.44
2019-03-10T05:29:39.688Z,100815.08
2019-03-10T05:30:40.474Z,100811.80
2019-03-10T05:31:40.799Z,100808.78
2019-03-10T05:32:41.113Z,100805.53
2019-03-10T05:33:41.114Z,100801.92
2019-03-10T05:34:41.377Z,100798.39
2019-03-10T05:35:42.194Z,100794.78
2019-03-10T05:36:42.574Z,100791.67
2019-03-10T05:37:43.566Z,100788.26
2019-03-10T05:38:42.997Z,100785.23
2019-03-10T05:39:44.216Z,100781.62
2019-03-10T05:40:44.377Z,100778.52
2019-03-10T05:41:44.400Z,100775.77
2019-03-10T05:42:44.825Z,100773.16
2019-03-10T05:43:45.012Z,100769.97
2019-03-10T05:44:45.391Z,100766.56
2019-03-10T05:45:46.100Z,100763.70
2019-03-10T05:46:46.428Z,100760.17
2019-03-10T05:47:46.704Z,100756.84
2019-03-10T05:48:47.237Z,100753.73
2019-03-10T05:49:47.507Z,100749.95
2019-03-10T05:50:47.756Z,100747.09
2019-03-10T05:51:47.983Z,100743.74
2019-03-10T05:52:48.938Z,100740.55
2019-03-10T05:53:49.073Z,100737.36
2019-03-10T05:54:49.152Z,100734.25
2019-03-10T05:55:49.293Z,100730.58
2019-03-10T05:55:59.356Z,100677.78
2019-03-10T05:57:01.176Z,100669.91
2019-03-10T05:58:01.362Z,100669.58
2019-03-10T05:59:01.459Z,100669.75
2019-03-10T06:00:01.900Z,100668.98
2019-03-10T06:01:02.096Z,100668.23
2019-03-10T06:02:02.410Z,100667.45
2019-03-10T06:03:02.650Z,100666.02
2019-03-10T06:04:03.100Z,100665.02
2019-03-10T06:05:05.839Z,100663.05
2019-03-10T06:06:02.481Z,100660.69
2019-03-10T06:07:04.432Z,100658.14
2019-03-10T06:08:04.989Z,100655.95
2019-03-10T06:09:05.068Z,100653.91
2019-03-10T06:10:05.403Z,100651.61
2019-03-10T06:11:04.411Z,100648.83
2019-03-10T06:12:06.310Z,100645.95
2019-03-10T06:13:06.445Z,100643.19
2019-03-10T06:14:06.789Z,100639.75
2019-03-10T06:15:07.310Z,100636.61
2019-03-10T06:16:07.721Z,100633.47
2019-03-10T06:17:07.854Z,100629.48
2019-03-10T06:18:13.728Z,100626.00
2019-03-10T06:19:07.368Z,100623.11
2019-03-10T06:20:08.662Z,100620.14
2019-03-10T06:21:08.929Z,100617.00
2019-03-10T06:22:09.165Z,100614.16
2019-03-10T06:23:09.781Z,100611.19
2019-03-10T06:24:09.923Z,100608.04
2019-03-10T06:25:10.189Z,100605.61
2019-03-10T06:26:10.346Z,100602.64
2019-03-10T06:27:10.519Z,100600.05
2019-03-10T06:28:11.129Z,100597.16
2019-03-10T06:29:11.762Z,100594.23
2019-03-10T06:30:11.891Z,100591.48
2019-03-10T06:31:12.242Z,100588.42
2019-03-10T06:32:12.434Z,100585.83
2019-03-10T06:33:12.958Z,100583.41
2019-03-10T06:34:13.125Z,100581.27
2019-03-10T06:35:12.556Z,100578.51
2019-03-10T06:36:14.259Z,100576.84
2019-03-10T06:37:14.322Z,100575.00
2019-03-10T06:38:14.648Z,100572.61
2019-03-10T06:39:15.015Z,100570.78
2019-03-10T06:40:15.179Z,100569.20
2019-03-10T06:41:15.310Z,100568.03
2019-03-10T06:42:15.495Z,100566.40
2019-03-10T06:42:24.059Z,100553.05
2019-03-10T06:43:25.192Z,100555.95
2019-03-10T06:44:25.637Z,100554.61
2019-03-10T06:45:25.989Z,100553.72
2019-03-10T06:46:26.430Z,100552.37
2019-03-10T06:47:26.781Z,100551.70
2019-03-10T06:48:27.078Z,100550.94
2019-03-10T06:49:27.282Z,100550.05
2019-03-10T06:50:27.857Z,100548.95
2019-03-10T06:51:28.298Z,100547.45
2019-03-10T06:52:28.384Z,100545.34
2019-03-10T06:53:28.714Z,100543.83
2019-03-10T06:54:29.326Z,100541.81
2019-03-10T06:55:30.248Z,100539.88
2019-03-10T06:56:30.860Z,100538.03
2019-03-10T06:57:31.200Z,100536.09
2019-03-10T06:58:31.374Z,100533.74
2019-03-10T06:59:31.828Z,100531.86
2019-03-10T07:00:32.327Z,100530.22
2019-03-10T07:01:33.067Z,100528.45
2019-03-10T07:02:33.265Z,100527.04
2019-03-10T07:03:33.544Z,100525.57
2019-03-10T07:04:33.601Z,100523.43
2019-03-10T07:05:33.883Z,100522.02
2019-03-10T07:06:34.819Z,100520.55
2019-03-10T07:07:34.998Z,100519.13
2019-03-10T07:08:35.348Z,100517.74
2019-03-10T07:09:36.118Z,100516.83
2019-03-10T07:10:36.508Z,100516.25
2019-03-10T07:11:36.656Z,100514.62
2019-03-10T07:12:37.177Z,100512.30
2019-03-10T07:13:39.575Z,100509.79
2019-03-10T07:14:37.146Z,100506.94
2019-03-10T07:15:38.459Z,100504.68
2019-03-10T07:16:38.667Z,100502.50
2019-03-10T07:17:39.121Z,100500.58
2019-03-10T07:18:39.403Z,100498.73
2019-03-10T07:19:39.709Z,100497.23
2019-03-10T07:20:39.990Z,100495.64
2019-03-10T07:21:40.442Z,100493.54
2019-03-10T07:22:40.708Z,100491.56
2019-03-10T07:23:40.992Z,100489.68
2019-03-10T07:24:41.323Z,100488.13
2019-03-10T07:25:41.740Z,100486.48
2019-03-10T07:26:42.411Z,100484.81
2019-03-10T07:26:50.939Z,100453.41
2019-03-10T07:27:51.036Z,100454.45
2019-03-10T07:28:52.257Z,100454.17
2019-03-10T07:29:52.713Z,100454.30
2019-03-10T07:30:52.983Z,100453.75
2019-03-10T07:31:53.057Z,100452.57
2019-03-10T07:32:53.433Z,100451.53
2019-03-10T07:33:54.082Z,100450.48
2019-03-10T07:34:54.141Z,100448.84
2019-03-10T07:35:54.382Z,100447.63
2019-03-10T07:36:54.967Z,100446.03
2019-03-10T07:37:55.250Z,100444.90
2019-03-10T07:38:55.413Z,100443.80
2019-03-10T07:39:55.462Z,100442.09
2019-03-10T07:40:55.601Z,100440.98
2019-03-10T07:41:55.684Z,100439.34
2019-03-10T07:42:55.932Z,100437.79
2019-03-10T07:43:56.021Z,100436.52
2019-03-10T07:44:56.328Z,100434.75
2019-03-10T07:45:56.436Z,100432.65
2019-03-10T07:46:56.819Z,100431.55
2019-03-10T07:47:57.133Z,100429.53
2019-03-10T07:48:57.992Z,100427.59
2019-03-10T07:49:58.370Z,100422.95
2019-03-10T07:50:59.258Z,100422.44
2019-03-10T07:51:59.197Z,100421.42
2019-03-10T07:53:00.895Z,100419.64
2019-03-10T07:54:01.051Z,100418.62
2019-03-10T07:55:01.829Z,100417.23
2019-03-10T07:56:02.347Z,100415.70
2019-03-10T07:57:02.597Z,100414.09
2019-03-10T07:58:01.968Z,100412.81
2019-03-10T07:59:03.658Z,100411.38
2019-03-10T08:00:03.867Z,100410.69
2019-03-10T08:01:03.955Z,100408.70
2019-03-10T08:02:04.195Z,100406.70
2019-03-10T08:03:04.747Z,100405.89
2019-03-10T08:04:05.002Z,100404.66
2019-03-10T08:05:05.475Z,100403.26
2019-03-10T08:06:06.004Z,100402.70
2019-03-10T08:07:06.050Z,100401.47
2019-03-10T08:08:06.422Z,100400.99
2019-03-10T08:09:06.488Z,100400.52
2019-03-10T08:10:07.168Z,100400.30
2019-03-10T08:11:07.426Z,100400.08
2019-03-10T08:12:07.640Z,100399.94
2019-03-10T08:12:19.172Z,100398.65
2019-03-10T08:13:20.705Z,100395.63
2019-03-10T08:14:21.684Z,100395.59
2019-03-10T08:15:22.244Z,100395.63
2019-03-10T08:16:22.648Z,100396.67
2019-03-10T08:17:24.602Z,100396.20
2019-03-10T08:18:22.459Z,100396.66
2019-03-10T08:19:22.975Z,100396.36
2019-03-10T08:20:24.196Z,100396.35
2019-03-10T08:21:24.348Z,100396.56
2019-03-10T08:22:25.104Z,100396.60
2019-03-10T08:23:25.583Z,100396.26
2019-03-10T08:24:26.015Z,100396.22
2019-03-10T08:25:26.548Z,100396.47
2019-03-10T08:26:27.221Z,100396.59
2019-03-10T08:27:27.454Z,100397.00
2019-03-10T08:28:27.746Z,100397.20
2019-03-10T08:29:28.407Z,100397.70
2019-03-10T08:30:28.746Z,100397.81
2019-03-10T08:31:28.757Z,100397.65
2019-03-10T08:32:29.469Z,100397.52
2019-03-10T08:33:30.283Z,100396.91
2019-03-10T08:34:30.411Z,100396.26
2019-03-10T08:35:31.210Z,100395.41
2019-03-10T08:36:31.444Z,100394.92
2019-03-10T08:37:31.925Z,100393.27
2019-03-10T08:38:32.276Z,100391.93
2019-03-10T08:39:32.487Z,100390.94
2019-03-10T08:40:32.909Z,100389.82
2019-03-10T08:41:33.701Z,100388.31
2019-03-10T08:42:34.084Z,100385.38
2019-03-10T08:43:34.472Z,100383.79
2019-03-10T08:44:34.749Z,100382.38
2019-03-10T08:45:35.157Z,100380.45
2019-03-10T08:46:35.466Z,100378.78
2019-03-10T08:47:35.449Z,100377.41
2019-03-10T08:48:36.451Z,100375.94
2019-03-10T08:49:44.776Z,100374.52
2019-03-10T08:50:36.414Z,100372.52
2019-03-10T08:51:37.968Z,100371.02
2019-03-10T08:52:38.265Z,100369.89
2019-03-10T08:53:37.368Z,100368.39
2019-03-10T08:54:38.776Z,100366.77
2019-03-10T08:55:39.839Z,100365.73
2019-03-10T08:56:39.296Z,100365.16
2019-03-10T08:57:40.529Z,100363.80
2019-03-10T08:58:39.550Z,100363.44
2019-03-10T08:59:40.908Z,100363.12
2019-03-10T09:00:40.002Z,100362.27
2019-03-10T09:01:41.533Z,100361.53
2019-03-10T09:01:50.056Z,100343.85
2019-03-10T09:02:51.532Z,100330.55
2019-03-10T09:03:51.824Z,100331.19
2019-03-10T09:04:52.779Z,100331.36
2019-03-10T09:05:53.244Z,100331.36
2019-03-10T09:06:54.133Z,100331.19
2019-03-10T09:07:55.013Z,100331.57
2019-03-10T09:08:55.149Z,100331.48
2019-03-10T09:09:55.600Z,100331.22
2019-03-10T09:10:56.174Z,100331.02
2019-03-10T09:11:56.599Z,100331.30
2019-03-10T09:12:55.975Z,100331.02
2019-03-10T09:13:57.414Z,100331.19
2019-03-10T09:14:58.021Z,100331.55
2019-03-10T09:15:58.678Z,100331.83
2019-03-10T09:16:58.878Z,100331.66
2019-03-10T09:17:59.738Z,100331.60
2019-03-10T09:19:00.155Z,100331.80
2019-03-10T09:20:00.898Z,100331.70
2019-03-10T09:21:00.553Z,100332.05
2019-03-10T09:22:02.280Z,100331.95
2019-03-10T09:23:02.389Z,100332.56
2019-03-10T09:24:02.524Z,100332.86
2019-03-10T09:25:02.819Z,100332.25
2019-03-10T09:26:03.208Z,100331.72
2019-03-10T09:27:03.750Z,100331.41
2019-03-10T09:28:04.130Z,100331.94
2019-03-10T09:29:04.263Z,100333.02
2019-03-10T09:30:04.861Z,100333.94
2019-03-10T09:31:05.196Z,100334.56
2019-03-10T09:32:04.814Z,100335.67
2019-03-10T09:33:06.380Z,100336.77
2019-03-10T09:34:07.168Z,100337.75
2019-03-10T09:35:06.710Z,100338.73
2019-03-10T09:36:08.175Z,100339.86
2019-03-10T09:37:07.542Z,100340.92
2019-03-10T09:38:09.277Z,100342.02
2019-03-10T09:39:09.627Z,100343.20
2019-03-10T09:40:09.818Z,100343.80
2019-03-10T09:41:10.003Z,100343.98
2019-03-10T09:42:10.289Z,100344.47
2019-03-10T09:43:10.681Z,100345.02
2019-03-10T09:44:11.119Z,100345.06
2019-03-10T09:45:11.884Z,100344.66
2019-03-10T09:46:11.395Z,100344.22
2019-03-10T09:47:11.795Z,100343.17
2019-03-10T09:48:14.164Z,100342.29
2019-03-10T09:49:12.516Z,100341.62
2019-03-10T09:50:13.629Z,100341.47
2019-03-10T09:51:13.918Z,100341.21
2019-03-10T09:52:14.057Z,100340.34
2019-03-10T09:53:14.620Z,100339.88
2019-03-10T09:54:15.427Z,100339.70
2019-03-10T09:55:15.968Z,100338.84
2019-03-10T09:56:16.481Z,100337.98
2019-03-10T09:57:16.750Z,100336.90
2019-03-10T09:58:16.905Z,100336.25
2019-03-10T09:58:29.027Z,100324.44
2019-03-10T09:59:29.174Z,100323.88
2019-03-10T10:00:29.705Z,100320.80
2019-03-10T10:01:29.800Z,100320.06
2019-03-10T10:02:30.339Z,100319.35
2019-03-10T10:03:31.089Z,100319.17
2019-03-10T10:04:31.213Z,100318.53
2019-03-10T10:05:32.281Z,100316.75
2019-03-10T10:06:33.081Z,100314.98
2019-03-10T10:07:33.659Z,100314.79
2019-03-10T10:08:33.191Z,100315.14
2019-03-10T10:09:33.875Z,100314.90
2019-03-10T10:10:34.039Z,100313.77
2019-03-10T10:11:33.983Z,100311.83
2019-03-10T10:13:34.643Z,100310.34
2019-03-10T10:14:35.940Z,100310.30
2019-03-10T10:15:35.625Z,100309.84
2019-03-10T10:16:36.569Z,100309.59
2019-03-10T10:17:37.149Z,100309.79
2019-03-10T10:18:37.365Z,100310.21
2019-03-10T10:19:38.271Z,100310.25
2019-03-10T10:20:38.503Z,100310.87
2019-03-10T10:21:39.148Z,100310.91
2019-03-10T10:22:39.166Z,100310.94
2019-03-10T10:23:39.704Z,100311.36
2019-03-10T10:24:41.216Z,100311.80
2019-03-10T10:25:44.359Z,100311.08
2019-03-10T10:26:41.460Z,100310.10
2019-03-10T10:27:43.401Z,100309.45
2019-03-10T10:28:43.015Z,100309.66
2019-03-10T10:29:44.445Z,100310.00
2019-03-10T10:30:44.096Z,100310.25
2019-03-10T10:31:44.550Z,100312.92
2019-03-10T10:32:44.875Z,100314.23
2019-03-10T10:33:45.079Z,100315.97
2019-03-10T10:34:45.119Z,100317.65
2019-03-10T10:35:45.501Z,100318.34
2019-03-10T10:36:45.631Z,100319.34
2019-03-10T10:37:46.685Z,100319.75
2019-03-10T10:38:47.369Z,100319.45
2019-03-10T10:39:47.637Z,100320.16
2019-03-10T10:40:48.138Z,100321.40
2019-03-10T10:41:48.190Z,100320.59
2019-03-10T10:42:48.869Z,100320.86
2019-03-10T10:43:49.301Z,100320.57
2019-03-10T10:44:51.105Z,100319.70
2019-03-10T10:45:53.625Z,100319.86
2019-03-10T10:46:50.993Z,100319.44
2019-03-10T10:47:51.894Z,100319.30
2019-03-10T10:48:52.046Z,100319.27
2019-03-10T10:49:53.489Z,100319.31
2019-03-10T10:50:54.043Z,100318.73
2019-03-10T10:51:53.459Z,100318.50
2019-03-10T10:52:54.369Z,100316.66
2019-03-10T10:53:57.087Z,100315.94
2019-03-10T10:54:58.009Z,100314.73
2019-03-10T10:55:55.648Z,100313.47
2019-03-10T10:56:56.333Z,100311.80
2019-03-10T10:57:57.492Z,100310.58
2019-03-10T10:58:58.035Z,100308.34
2019-03-10T10:59:58.511Z,100306.59
2019-03-10T11:00:57.774Z,100303.48
2019-03-10T11:01:59.142Z,100301.25
2019-03-10T11:02:59.704Z,100299.67
2019-03-10T11:04:00.698Z,100297.03
2019-03-10T11:05:00.883Z,100295.34
2019-03-10T11:06:01.053Z,100294.46
2019-03-10T11:07:01.565Z,100292.52
2019-03-10T11:08:01.802Z,100290.72
2019-03-10T11:09:03.122Z,100288.06
2019-03-10T11:10:01.971Z,100287.02
2019-03-10T11:11:10.833Z,100285.98
2019-03-10T11:12:03.364Z,100283.85
2019-03-10T11:13:03.975Z,100282.31
2019-03-10T11:14:05.651Z,100281.03
2019-03-10T11:15:06.133Z,100280.11
2019-03-10T11:16:06.863Z,100277.34
2019-03-10T11:17:07.268Z,100275.76
2019-03-10T11:18:09.743Z,100275.30
2019-03-10T11:19:07.942Z,100273.48